sensor_id;sensor_type;location;lat;lon;timestamp;P1;durP1;ratioP1;P2;durP2;ratioP2
73219;SDS011;61434;43.538;-5.688;2023-03-01T00:01:15;7.33;;;1.30;;
73219;SDS011;61434;43.538;-5.688;2023-03-01T00:03:41;5.88;;;1.55;;
73219;SDS011;61434;43.538;-5.688;2023-03-01T00:06:06;9.32;;;1.30;;
73219;SDS011;61434;43.538;-5.688;2023-03-01T00:08:32;6.20;;;1.10;;
73219;SDS011;61434;43.538;-5.688;2023-03-01T00:13:27;4.68;;;1.20;;
73219;SDS011;61434;43.538;-5.688;2023-03-01T00:15:53;6.53;;;1.07;;
73219;SDS011;61434;43.538;-5.688;2023-03-01T00:18:18;12.53;;;1.47;;
73219;SDS011;61434;43.538;-5.688;2023-03-01T00:20:49;5.30;;;1.17;;
73219;SDS011;61434;43.538;-5.688;2023-03-01T00:23:14;5.82;;;1.10;;
73219;SDS011;61434;43.538;-5.688;2023-03-01T00:25:43;6.93;;;1.77;;
73219;SDS011;61434;43.538;-5.688;2023-03-01T00:28:08;5.77;;;1.50;;
73219;SDS011;61434;43.538;-5.688;2023-03-01T00:30:33;6.30;;;1.30;;
73219;SDS011;61434;43.538;-5.688;2023-03-01T00:32:59;7.30;;;1.63;;
73219;SDS011;61434;43.538;-5.688;2023-03-01T00:35:24;5.80;;;1.43;;
73219;SDS011;61434;43.538;-5.688;2023-03-01T00:37:49;6.00;;;1.63;;
73219;SDS011;61434;43.538;-5.688;2023-03-01T00:40:22;8.50;;;1.73;;
73219;SDS011;61434;43.538;-5.688;2023-03-01T00:42:48;5.55;;;1.35;;
73219;SDS011;61434;43.538;-5.688;2023-03-01T00:45:13;4.67;;;1.20;;
73219;SDS011;61434;43.538;-5.688;2023-03-01T00:47:39;5.77;;;1.20;;
73219;SDS011;61434;43.538;-5.688;2023-03-01T00:50:04;5.83;;;1.60;;
73219;SDS011;61434;43.538;-5.688;2023-03-01T00:52:30;4.73;;;1.60;;
73219;SDS011;61434;43.538;-5.688;2023-03-01T00:54:55;5.67;;;1.30;;
73219;SDS011;61434;43.538;-5.688;2023-03-01T00:57:20;5.03;;;1.33;;
73219;SDS011;61434;43.538;-5.688;2023-03-01T00:59:45;7.83;;;1.50;;
73219;SDS011;61434;43.538;-5.688;2023-03-01T01:02:11;6.93;;;1.70;;
73219;SDS011;61434;43.538;-5.688;2023-03-01T01:04:36;5.07;;;1.33;;
73219;SDS011;61434;43.538;-5.688;2023-03-01T01:07:01;4.90;;;1.40;;
73219;SDS011;61434;43.538;-5.688;2023-03-01T01:09:27;6.50;;;1.80;;
73219;SDS011;61434;43.538;-5.688;2023-03-01T01:11:52;4.63;;;1.20;;
73219;SDS011;61434;43.538;-5.688;2023-03-01T01:14:18;7.07;;;1.40;;
73219;SDS011;61434;43.538;-5.688;2023-03-01T01:16:43;4.97;;;1.50;;
73219;SDS011;61434;43.538;-5.688;2023-03-01T01:19:10;6.13;;;1.70;;
73219;SDS011;61434;43.538;-5.688;2023-03-01T01:21:35;8.23;;;2.00;;
73219;SDS011;61434;43.538;-5.688;2023-03-01T01:24:02;9.73;;;2.27;;
73219;SDS011;61434;43.538;-5.688;2023-03-01T01:26:28;7.07;;;2.30;;
73219;SDS011;61434;43.538;-5.688;2023-03-01T01:28:54;7.50;;;2.42;;
73219;SDS011;61434;43.538;-5.688;2023-03-01T01:31:20;12.17;;;3.20;;
73219;SDS011;61434;43.538;-5.688;2023-03-01T01:33:45;6.43;;;2.03;;
73219;SDS011;61434;43.538;-5.688;2023-03-01T01:36:10;6.57;;;2.25;;
73219;SDS011;61434;43.538;-5.688;2023-03-01T01:38:36;8.47;;;2.10;;
73219;SDS011;61434;43.538;-5.688;2023-03-01T01:41:02;6.77;;;1.70;;
73219;SDS011;61434;43.538;-5.688;2023-03-01T01:43:29;6.13;;;1.60;;
73219;SDS011;61434;43.538;-5.688;2023-03-01T01:46:02;6.40;;;2.13;;
73219;SDS011;61434;43.538;-5.688;2023-03-01T01:48:32;9.38;;;2.10;;
73219;SDS011;61434;43.538;-5.688;2023-03-01T01:51:05;9.83;;;2.43;;
73219;SDS011;61434;43.538;-5.688;2023-03-01T01:53:32;8.90;;;2.10;;
73219;SDS011;61434;43.538;-5.688;2023-03-01T01:55:58;6.90;;;2.40;;
73219;SDS011;61434;43.538;-5.688;2023-03-01T01:58:24;8.93;;;2.55;;
73219;SDS011;61434;43.538;-5.688;2023-03-01T02:00:51;8.13;;;2.50;;
73219;SDS011;61434;43.538;-5.688;2023-03-01T02:03:18;8.43;;;3.00;;
73219;SDS011;61434;43.538;-5.688;2023-03-01T02:08:16;8.27;;;2.55;;
73219;SDS011;61434;43.538;-5.688;2023-03-01T02:10:42;7.20;;;2.60;;
73219;SDS011;61434;43.538;-5.688;2023-03-01T02:13:07;7.10;;;2.55;;
73219;SDS011;61434;43.538;-5.688;2023-03-01T02:15:33;7.60;;;2.70;;
73219;SDS011;61434;43.538;-5.688;2023-03-01T02:17:59;8.80;;;2.63;;
73219;SDS011;61434;43.538;-5.688;2023-03-01T02:23:08;9.93;;;3.00;;
73219;SDS011;61434;43.538;-5.688;2023-03-01T02:25:36;7.27;;;3.00;;
73219;SDS011;61434;43.538;-5.688;2023-03-01T02:28:10;7.30;;;3.28;;
73219;SDS011;61434;43.538;-5.688;2023-03-01T02:30:37;7.00;;;3.27;;
73219;SDS011;61434;43.538;-5.688;2023-03-01T02:33:22;9.40;;;3.70;;
73219;SDS011;61434;43.538;-5.688;2023-03-01T02:35:48;8.63;;;3.57;;
73219;SDS011;61434;43.538;-5.688;2023-03-01T02:38:13;9.25;;;4.30;;
73219;SDS011;61434;43.538;-5.688;2023-03-01T02:40:39;7.13;;;3.53;;
73219;SDS011;61434;43.538;-5.688;2023-03-01T02:43:06;10.70;;;4.27;;
73219;SDS011;61434;43.538;-5.688;2023-03-01T02:45:33;10.57;;;4.30;;
73219;SDS011;61434;43.538;-5.688;2023-03-01T02:47:58;10.77;;;4.47;;
73219;SDS011;61434;43.538;-5.688;2023-03-01T02:55:39;10.27;;;4.50;;
73219;SDS011;61434;43.538;-5.688;2023-03-01T02:58:04;9.73;;;4.10;;
73219;SDS011;61434;43.538;-5.688;2023-03-01T03:00:31;11.00;;;4.23;;
73219;SDS011;61434;43.538;-5.688;2023-03-01T03:02:59;10.00;;;4.30;;
73219;SDS011;61434;43.538;-5.688;2023-03-01T03:05:29;9.77;;;4.67;;
73219;SDS011;61434;43.538;-5.688;2023-03-01T03:07:54;9.63;;;4.57;;
73219;SDS011;61434;43.538;-5.688;2023-03-01T03:10:21;9.43;;;4.97;;
73219;SDS011;61434;43.538;-5.688;2023-03-01T03:12:57;11.60;;;5.32;;
73219;SDS011;61434;43.538;-5.688;2023-03-01T03:15:23;10.37;;;5.07;;
73219;SDS011;61434;43.538;-5.688;2023-03-01T03:17:48;11.70;;;5.03;;
73219;SDS011;61434;43.538;-5.688;2023-03-01T03:20:15;13.93;;;5.70;;
73219;SDS011;61434;43.538;-5.688;2023-03-01T03:22:44;13.73;;;5.20;;
73219;SDS011;61434;43.538;-5.688;2023-03-01T03:25:10;9.20;;;5.00;;
73219;SDS011;61434;43.538;-5.688;2023-03-01T03:27:39;12.47;;;5.57;;
73219;SDS011;61434;43.538;-5.688;2023-03-01T03:30:05;13.00;;;5.18;;
73219;SDS011;61434;43.538;-5.688;2023-03-01T03:32:36;10.40;;;5.50;;
73219;SDS011;61434;43.538;-5.688;2023-03-01T03:35:03;14.25;;;5.60;;
73219;SDS011;61434;43.538;-5.688;2023-03-01T03:37:35;12.02;;;6.20;;
73219;SDS011;61434;43.538;-5.688;2023-03-01T03:40:19;12.43;;;5.67;;
73219;SDS011;61434;43.538;-5.688;2023-03-01T03:42:44;11.07;;;5.60;;
73219;SDS011;61434;43.538;-5.688;2023-03-01T03:45:10;12.60;;;5.23;;
73219;SDS011;61434;43.538;-5.688;2023-03-01T03:47:35;13.97;;;5.13;;
73219;SDS011;61434;43.538;-5.688;2023-03-01T03:50:00;11.27;;;4.97;;
73219;SDS011;61434;43.538;-5.688;2023-03-01T03:52:26;10.20;;;4.57;;
73219;SDS011;61434;43.538;-5.688;2023-03-01T03:54:51;9.03;;;4.80;;
73219;SDS011;61434;43.538;-5.688;2023-03-01T03:57:16;11.23;;;4.73;;
73219;SDS011;61434;43.538;-5.688;2023-03-01T03:59:41;10.23;;;4.87;;
73219;SDS011;61434;43.538;-5.688;2023-03-01T04:02:07;9.27;;;5.00;;
73219;SDS011;61434;43.538;-5.688;2023-03-01T04:04:33;11.02;;;5.70;;
73219;SDS011;61434;43.538;-5.688;2023-03-01T04:06:59;10.90;;;5.30;;
73219;SDS011;61434;43.538;-5.688;2023-03-01T04:09:24;9.17;;;4.93;;
73219;SDS011;61434;43.538;-5.688;2023-03-01T04:11:49;11.67;;;5.10;;
73219;SDS011;61434;43.538;-5.688;2023-03-01T04:14:15;11.43;;;5.07;;
73219;SDS011;61434;43.538;-5.688;2023-03-01T04:16:40;12.13;;;5.10;;
73219;SDS011;61434;43.538;-5.688;2023-03-01T04:19:06;11.57;;;5.20;;
73219;SDS011;61434;43.538;-5.688;2023-03-01T04:21:31;11.23;;;4.80;;
73219;SDS011;61434;43.538;-5.688;2023-03-01T04:23:56;11.20;;;4.77;;
73219;SDS011;61434;43.538;-5.688;2023-03-01T04:26:22;11.43;;;5.10;;
73219;SDS011;61434;43.538;-5.688;2023-03-01T04:28:47;12.23;;;5.40;;
73219;SDS011;61434;43.538;-5.688;2023-03-01T04:31:16;12.75;;;5.47;;
73219;SDS011;61434;43.538;-5.688;2023-03-01T04:33:46;9.20;;;5.10;;
73219;SDS011;61434;43.538;-5.688;2023-03-01T04:36:12;12.38;;;5.43;;
73219;SDS011;61434;43.538;-5.688;2023-03-01T04:38:38;9.55;;;5.20;;
73219;SDS011;61434;43.538;-5.688;2023-03-01T04:41:08;9.80;;;5.17;;
73219;SDS011;61434;43.538;-5.688;2023-03-01T04:43:34;10.88;;;5.22;;
73219;SDS011;61434;43.538;-5.688;2023-03-01T04:46:00;11.48;;;4.72;;
73219;SDS011;61434;43.538;-5.688;2023-03-01T04:48:27;12.95;;;5.35;;
73219;SDS011;61434;43.538;-5.688;2023-03-01T04:50:52;11.87;;;5.37;;
73219;SDS011;61434;43.538;-5.688;2023-03-01T04:53:18;11.97;;;4.90;;
73219;SDS011;61434;43.538;-5.688;2023-03-01T04:55:43;9.90;;;4.83;;
73219;SDS011;61434;43.538;-5.688;2023-03-01T04:58:08;9.83;;;4.53;;
73219;SDS011;61434;43.538;-5.688;2023-03-01T05:00:34;10.18;;;4.47;;
73219;SDS011;61434;43.538;-5.688;2023-03-01T05:03:00;10.80;;;4.73;;
73219;SDS011;61434;43.538;-5.688;2023-03-01T05:08:00;8.83;;;4.90;;
73219;SDS011;61434;43.538;-5.688;2023-03-01T05:10:27;11.55;;;4.80;;
73219;SDS011;61434;43.538;-5.688;2023-03-01T05:12:54;11.10;;;4.88;;
73219;SDS011;61434;43.538;-5.688;2023-03-01T05:15:19;10.40;;;5.13;;
73219;SDS011;61434;43.538;-5.688;2023-03-01T05:17:46;12.93;;;4.72;;
73219;SDS011;61434;43.538;-5.688;2023-03-01T05:20:12;9.87;;;4.90;;
73219;SDS011;61434;43.538;-5.688;2023-03-01T05:22:37;11.88;;;4.60;;
73219;SDS011;61434;43.538;-5.688;2023-03-01T05:25:03;12.33;;;4.53;;
73219;SDS011;61434;43.538;-5.688;2023-03-01T05:27:28;8.60;;;4.33;;
73219;SDS011;61434;43.538;-5.688;2023-03-01T05:29:54;13.13;;;5.00;;
73219;SDS011;61434;43.538;-5.688;2023-03-01T05:32:20;15.27;;;5.40;;
73219;SDS011;61434;43.538;-5.688;2023-03-01T05:34:45;11.97;;;5.00;;
73219;SDS011;61434;43.538;-5.688;2023-03-01T05:37:11;10.47;;;4.53;;
73219;SDS011;61434;43.538;-5.688;2023-03-01T05:39:37;10.25;;;5.00;;
73219;SDS011;61434;43.538;-5.688;2023-03-01T05:42:02;10.07;;;4.23;;
73219;SDS011;61434;43.538;-5.688;2023-03-01T05:44:28;7.93;;;4.50;;
73219;SDS011;61434;43.538;-5.688;2023-03-01T05:46:53;9.70;;;5.00;;
73219;SDS011;61434;43.538;-5.688;2023-03-01T05:49:19;13.57;;;5.57;;
73219;SDS011;61434;43.538;-5.688;2023-03-01T05:51:47;10.13;;;5.13;;
73219;SDS011;61434;43.538;-5.688;2023-03-01T05:54:13;10.65;;;5.72;;
73219;SDS011;61434;43.538;-5.688;2023-03-01T05:56:38;11.63;;;5.77;;
73219;SDS011;61434;43.538;-5.688;2023-03-01T05:59:04;13.93;;;6.40;;
73219;SDS011;61434;43.538;-5.688;2023-03-01T06:01:33;12.88;;;6.20;;
73219;SDS011;61434;43.538;-5.688;2023-03-01T06:03:58;10.00;;;4.45;;
73219;SDS011;61434;43.538;-5.688;2023-03-01T06:06:24;9.63;;;4.93;;
73219;SDS011;61434;43.538;-5.688;2023-03-01T06:08:49;9.03;;;4.53;;
73219;SDS011;61434;43.538;-5.688;2023-03-01T06:11:14;8.80;;;3.50;;
73219;SDS011;61434;43.538;-5.688;2023-03-01T06:13:41;10.10;;;5.47;;
73219;SDS011;61434;43.538;-5.688;2023-03-01T06:16:06;8.33;;;4.10;;
73219;SDS011;61434;43.538;-5.688;2023-03-01T06:18:32;7.45;;;3.20;;
73219;SDS011;61434;43.538;-5.688;2023-03-01T06:20:57;13.27;;;4.70;;
73219;SDS011;61434;43.538;-5.688;2023-03-01T06:23:22;7.80;;;3.77;;
73219;SDS011;61434;43.538;-5.688;2023-03-01T06:25:48;11.57;;;3.00;;
73219;SDS011;61434;43.538;-5.688;2023-03-01T06:28:13;15.83;;;3.47;;
73219;SDS011;61434;43.538;-5.688;2023-03-01T06:30:38;8.57;;;3.15;;
73219;SDS011;61434;43.538;-5.688;2023-03-01T06:33:04;11.13;;;3.73;;
73219;SDS011;61434;43.538;-5.688;2023-03-01T06:35:29;12.50;;;2.53;;
73219;SDS011;61434;43.538;-5.688;2023-03-01T06:37:55;10.25;;;4.10;;
73219;SDS011;61434;43.538;-5.688;2023-03-01T06:40:20;10.40;;;3.67;;
73219;SDS011;61434;43.538;-5.688;2023-03-01T06:42:49;9.43;;;3.67;;
73219;SDS011;61434;43.538;-5.688;2023-03-01T06:45:15;7.47;;;3.72;;
73219;SDS011;61434;43.538;-5.688;2023-03-01T06:47:40;11.77;;;4.37;;
73219;SDS011;61434;43.538;-5.688;2023-03-01T06:50:08;8.43;;;4.20;;
73219;SDS011;61434;43.538;-5.688;2023-03-01T06:52:34;8.63;;;4.20;;
73219;SDS011;61434;43.538;-5.688;2023-03-01T06:54:59;9.53;;;3.60;;
73219;SDS011;61434;43.538;-5.688;2023-03-01T06:57:25;9.07;;;3.90;;
73219;SDS011;61434;43.538;-5.688;2023-03-01T06:59:50;9.25;;;4.18;;
73219;SDS011;61434;43.538;-5.688;2023-03-01T07:02:15;14.30;;;3.83;;
73219;SDS011;61434;43.538;-5.688;2023-03-01T07:04:41;8.17;;;3.57;;
73219;SDS011;61434;43.538;-5.688;2023-03-01T07:07:06;9.40;;;4.17;;
73219;SDS011;61434;43.538;-5.688;2023-03-01T07:09:32;7.37;;;4.00;;
73219;SDS011;61434;43.538;-5.688;2023-03-01T07:11:57;9.23;;;4.30;;
73219;SDS011;61434;43.538;-5.688;2023-03-01T07:14:23;9.13;;;4.00;;
73219;SDS011;61434;43.538;-5.688;2023-03-01T07:16:50;11.27;;;3.85;;
73219;SDS011;61434;43.538;-5.688;2023-03-01T07:19:16;8.87;;;4.27;;
73219;SDS011;61434;43.538;-5.688;2023-03-01T07:21:41;10.23;;;3.97;;
73219;SDS011;61434;43.538;-5.688;2023-03-01T07:24:07;9.87;;;3.63;;
73219;SDS011;61434;43.538;-5.688;2023-03-01T07:26:32;8.88;;;4.50;;
73219;SDS011;61434;43.538;-5.688;2023-03-01T07:29:01;8.63;;;3.83;;
73219;SDS011;61434;43.538;-5.688;2023-03-01T07:31:27;12.60;;;4.35;;
73219;SDS011;61434;43.538;-5.688;2023-03-01T07:33:55;10.18;;;4.25;;
73219;SDS011;61434;43.538;-5.688;2023-03-01T07:36:20;9.27;;;4.00;;
73219;SDS011;61434;43.538;-5.688;2023-03-01T07:38:45;9.17;;;3.90;;
73219;SDS011;61434;43.538;-5.688;2023-03-01T07:41:11;11.60;;;5.23;;
73219;SDS011;61434;43.538;-5.688;2023-03-01T07:43:36;11.07;;;4.53;;
73219;SDS011;61434;43.538;-5.688;2023-03-01T07:46:02;11.47;;;4.87;;
73219;SDS011;61434;43.538;-5.688;2023-03-01T07:48:27;9.85;;;3.90;;
73219;SDS011;61434;43.538;-5.688;2023-03-01T07:50:53;9.57;;;4.00;;
73219;SDS011;61434;43.538;-5.688;2023-03-01T07:53:18;14.50;;;3.47;;
73219;SDS011;61434;43.538;-5.688;2023-03-01T07:55:43;9.37;;;2.73;;
73219;SDS011;61434;43.538;-5.688;2023-03-01T07:58:09;10.90;;;3.87;;
73219;SDS011;61434;43.538;-5.688;2023-03-01T08:00:34;8.17;;;2.50;;
73219;SDS011;61434;43.538;-5.688;2023-03-01T08:03:00;6.63;;;2.20;;
73219;SDS011;61434;43.538;-5.688;2023-03-01T08:05:26;7.18;;;2.05;;
73219;SDS011;61434;43.538;-5.688;2023-03-01T08:07:53;8.97;;;3.00;;
73219;SDS011;61434;43.538;-5.688;2023-03-01T08:10:19;8.02;;;3.13;;
73219;SDS011;61434;43.538;-5.688;2023-03-01T08:12:44;8.30;;;3.10;;
73219;SDS011;61434;43.538;-5.688;2023-03-01T08:15:09;7.43;;;3.23;;
73219;SDS011;61434;43.538;-5.688;2023-03-01T08:17:35;6.40;;;2.60;;
73219;SDS011;61434;43.538;-5.688;2023-03-01T08:20:00;7.10;;;2.53;;
73219;SDS011;61434;43.538;-5.688;2023-03-01T08:22:25;7.07;;;2.67;;
73219;SDS011;61434;43.538;-5.688;2023-03-01T08:24:51;12.13;;;2.80;;
73219;SDS011;61434;43.538;-5.688;2023-03-01T08:27:16;6.97;;;2.77;;
73219;SDS011;61434;43.538;-5.688;2023-03-01T08:29:42;8.07;;;2.97;;
73219;SDS011;61434;43.538;-5.688;2023-03-01T08:32:07;9.90;;;2.97;;
73219;SDS011;61434;43.538;-5.688;2023-03-01T08:34:32;9.38;;;2.75;;
73219;SDS011;61434;43.538;-5.688;2023-03-01T08:37:00;8.53;;;1.80;;
73219;SDS011;61434;43.538;-5.688;2023-03-01T08:39:26;11.18;;;2.22;;
73219;SDS011;61434;43.538;-5.688;2023-03-01T08:41:51;16.17;;;2.40;;
73219;SDS011;61434;43.538;-5.688;2023-03-01T08:44:16;6.70;;;2.60;;
73219;SDS011;61434;43.538;-5.688;2023-03-01T08:46:42;7.73;;;2.30;;
73219;SDS011;61434;43.538;-5.688;2023-03-01T08:49:11;10.65;;;2.17;;
73219;SDS011;61434;43.538;-5.688;2023-03-01T08:51:37;9.13;;;2.17;;
73219;SDS011;61434;43.538;-5.688;2023-03-01T08:54:03;10.07;;;2.55;;
73219;SDS011;61434;43.538;-5.688;2023-03-01T08:56:30;17.80;;;3.33;;
73219;SDS011;61434;43.538;-5.688;2023-03-01T08:58:55;14.67;;;3.23;;
73219;SDS011;61434;43.538;-5.688;2023-03-01T09:01:20;14.23;;;3.73;;
73219;SDS011;61434;43.538;-5.688;2023-03-01T09:03:46;8.27;;;3.88;;
73219;SDS011;61434;43.538;-5.688;2023-03-01T09:06:11;12.07;;;5.30;;
73219;SDS011;61434;43.538;-5.688;2023-03-01T09:08:37;9.07;;;4.53;;
73219;SDS011;61434;43.538;-5.688;2023-03-01T09:11:03;12.48;;;3.10;;
73219;SDS011;61434;43.538;-5.688;2023-03-01T09:13:29;14.33;;;3.93;;
73219;SDS011;61434;43.538;-5.688;2023-03-01T09:15:56;11.57;;;4.28;;
73219;SDS011;61434;43.538;-5.688;2023-03-01T09:18:21;11.40;;;3.55;;
73219;SDS011;61434;43.538;-5.688;2023-03-01T09:20:47;10.93;;;4.00;;
73219;SDS011;61434;43.538;-5.688;2023-03-01T09:23:12;8.20;;;3.50;;
73219;SDS011;61434;43.538;-5.688;2023-03-01T09:25:37;7.77;;;3.23;;
73219;SDS011;61434;43.538;-5.688;2023-03-01T09:28:03;9.93;;;3.57;;
73219;SDS011;61434;43.538;-5.688;2023-03-01T09:30:28;9.30;;;3.58;;
73219;SDS011;61434;43.538;-5.688;2023-03-01T09:32:55;7.30;;;3.00;;
73219;SDS011;61434;43.538;-5.688;2023-03-01T09:35:21;9.73;;;3.40;;
73219;SDS011;61434;43.538;-5.688;2023-03-01T09:37:47;9.88;;;3.42;;
73219;SDS011;61434;43.538;-5.688;2023-03-01T09:40:16;7.37;;;3.70;;
73219;SDS011;61434;43.538;-5.688;2023-03-01T09:42:47;7.10;;;3.25;;
73219;SDS011;61434;43.538;-5.688;2023-03-01T09:45:19;8.20;;;3.80;;
73219;SDS011;61434;43.538;-5.688;2023-03-01T09:47:46;11.23;;;3.65;;
73219;SDS011;61434;43.538;-5.688;2023-03-01T09:52:39;7.83;;;3.50;;
73219;SDS011;61434;43.538;-5.688;2023-03-01T09:55:10;8.35;;;3.40;;
73219;SDS011;61434;43.538;-5.688;2023-03-01T09:57:38;8.95;;;4.15;;
73219;SDS011;61434;43.538;-5.688;2023-03-01T10:10:05;7.03;;;3.10;;
73219;SDS011;61434;43.538;-5.688;2023-03-01T10:12:35;8.00;;;3.25;;
73219;SDS011;61434;43.538;-5.688;2023-03-01T10:19:53;6.70;;;3.20;;
73219;SDS011;61434;43.538;-5.688;2023-03-01T10:22:21;7.20;;;2.70;;
73219;SDS011;61434;43.538;-5.688;2023-03-01T10:24:48;6.07;;;2.42;;
73219;SDS011;61434;43.538;-5.688;2023-03-01T10:27:24;8.35;;;2.83;;
73219;SDS011;61434;43.538;-5.688;2023-03-01T10:30:13;7.03;;;2.70;;
73219;SDS011;61434;43.538;-5.688;2023-03-01T10:32:36;9.05;;;2.83;;
73219;SDS011;61434;43.538;-5.688;2023-03-01T10:35:14;7.25;;;3.15;;
73219;SDS011;61434;43.538;-5.688;2023-03-01T10:37:46;7.60;;;3.20;;
73219;SDS011;61434;43.538;-5.688;2023-03-01T10:40:21;7.72;;;3.63;;
73219;SDS011;61434;43.538;-5.688;2023-03-01T10:42:47;6.75;;;3.10;;
73219;SDS011;61434;43.538;-5.688;2023-03-01T10:47:45;9.07;;;3.50;;
73219;SDS011;61434;43.538;-5.688;2023-03-01T10:50:18;7.57;;;4.00;;
73219;SDS011;61434;43.538;-5.688;2023-03-01T10:52:44;9.10;;;2.93;;
73219;SDS011;61434;43.538;-5.688;2023-03-01T10:55:24;8.90;;;3.08;;
73219;SDS011;61434;43.538;-5.688;2023-03-01T10:58:06;10.10;;;2.63;;
73219;SDS011;61434;43.538;-5.688;2023-03-01T11:00:31;11.38;;;2.92;;
73219;SDS011;61434;43.538;-5.688;2023-03-01T11:05:23;7.70;;;2.73;;
73219;SDS011;61434;43.538;-5.688;2023-03-01T11:07:53;7.73;;;2.60;;
73219;SDS011;61434;43.538;-5.688;2023-03-01T11:10:32;8.82;;;2.47;;
73219;SDS011;61434;43.538;-5.688;2023-03-01T11:13:17;7.45;;;2.72;;
73219;SDS011;61434;43.538;-5.688;2023-03-01T11:15:43;7.18;;;2.53;;
73219;SDS011;61434;43.538;-5.688;2023-03-01T11:18:42;7.45;;;2.78;;
73219;SDS011;61434;43.538;-5.688;2023-03-01T11:21:00;9.83;;;3.50;;
73219;SDS011;61434;43.538;-5.688;2023-03-01T11:23:27;8.15;;;2.95;;
73219;SDS011;61434;43.538;-5.688;2023-03-01T11:25:58;7.85;;;3.30;;
73219;SDS011;61434;43.538;-5.688;2023-03-01T11:28:24;6.82;;;3.15;;
73219;SDS011;61434;43.538;-5.688;2023-03-01T11:30:55;10.77;;;4.40;;
73219;SDS011;61434;43.538;-5.688;2023-03-01T11:35:55;8.23;;;4.38;;
73219;SDS011;61434;43.538;-5.688;2023-03-01T11:38:30;12.07;;;4.07;;
73219;SDS011;61434;43.538;-5.688;2023-03-01T11:51:37;9.20;;;4.45;;
73219;SDS011;61434;43.538;-5.688;2023-03-01T11:56:55;8.15;;;3.40;;
73219;SDS011;61434;43.538;-5.688;2023-03-01T12:02:00;7.70;;;2.57;;
73219;SDS011;61434;43.538;-5.688;2023-03-01T12:06:56;7.38;;;2.78;;
73219;SDS011;61434;43.538;-5.688;2023-03-01T12:20:11;14.52;;;2.15;;
73219;SDS011;61434;43.538;-5.688;2023-03-01T12:30:15;7.50;;;1.50;;
73219;SDS011;61434;43.538;-5.688;2023-03-01T12:32:51;6.95;;;1.77;;
73219;SDS011;61434;43.538;-5.688;2023-03-01T12:35:37;10.23;;;1.67;;
73219;SDS011;61434;43.538;-5.688;2023-03-01T12:51:05;6.47;;;1.60;;
73219;SDS011;61434;43.538;-5.688;2023-03-01T12:53:34;7.90;;;1.90;;
73219;SDS011;61434;43.538;-5.688;2023-03-01T12:56:01;4.32;;;1.50;;
73219;SDS011;61434;43.538;-5.688;2023-03-01T13:03:53;14.57;;;2.05;;
73219;SDS011;61434;43.538;-5.688;2023-03-01T13:08:59;11.40;;;3.63;;
73219;SDS011;61434;43.538;-5.688;2023-03-01T13:11:29;4.70;;;1.75;;
73219;SDS011;61434;43.538;-5.688;2023-03-01T13:16:40;5.90;;;2.10;;
73219;SDS011;61434;43.538;-5.688;2023-03-01T13:19:15;4.70;;;1.70;;
73219;SDS011;61434;43.538;-5.688;2023-03-01T13:21:42;5.43;;;1.90;;
73219;SDS011;61434;43.538;-5.688;2023-03-01T13:32:20;6.27;;;2.43;;
73219;SDS011;61434;43.538;-5.688;2023-03-01T13:34:47;5.40;;;2.17;;
73219;SDS011;61434;43.538;-5.688;2023-03-01T13:37:20;6.63;;;2.70;;
73219;SDS011;61434;43.538;-5.688;2023-03-01T13:39:45;5.32;;;2.33;;
73219;SDS011;61434;43.538;-5.688;2023-03-01T13:42:32;4.88;;;2.13;;
73219;SDS011;61434;43.538;-5.688;2023-03-01T13:44:58;4.90;;;2.10;;
73219;SDS011;61434;43.538;-5.688;2023-03-01T13:47:23;7.60;;;2.33;;
73219;SDS011;61434;43.538;-5.688;2023-03-01T13:54:56;6.68;;;3.08;;
73219;SDS011;61434;43.538;-5.688;2023-03-01T13:57:22;5.77;;;2.50;;
73219;SDS011;61434;43.538;-5.688;2023-03-01T13:59:49;7.70;;;2.10;;
73219;SDS011;61434;43.538;-5.688;2023-03-01T14:02:15;7.03;;;2.00;;
73219;SDS011;61434;43.538;-5.688;2023-03-01T14:04:40;4.30;;;1.53;;
73219;SDS011;61434;43.538;-5.688;2023-03-01T14:07:19;8.10;;;1.80;;
73219;SDS011;61434;43.538;-5.688;2023-03-01T14:09:45;5.10;;;1.42;;
73219;SDS011;61434;43.538;-5.688;2023-03-01T14:17:24;5.47;;;1.63;;
73219;SDS011;61434;43.538;-5.688;2023-03-01T14:19:57;7.00;;;2.03;;
73219;SDS011;61434;43.538;-5.688;2023-03-01T14:22:24;10.77;;;2.30;;
73219;SDS011;61434;43.538;-5.688;2023-03-01T14:24:55;8.07;;;2.30;;
73219;SDS011;61434;43.538;-5.688;2023-03-01T14:27:20;8.98;;;2.17;;
73219;SDS011;61434;43.538;-5.688;2023-03-01T14:32:48;6.87;;;1.70;;
73219;SDS011;61434;43.538;-5.688;2023-03-01T14:35:20;6.15;;;2.00;;
73219;SDS011;61434;43.538;-5.688;2023-03-01T14:37:46;5.93;;;1.70;;
73219;SDS011;61434;43.538;-5.688;2023-03-01T14:40:34;7.20;;;2.22;;
73219;SDS011;61434;43.538;-5.688;2023-03-01T14:43:00;5.75;;;1.80;;
73219;SDS011;61434;43.538;-5.688;2023-03-01T14:45:26;6.03;;;1.40;;
73219;SDS011;61434;43.538;-5.688;2023-03-01T14:47:52;3.65;;;1.10;;
73219;SDS011;61434;43.538;-5.688;2023-03-01T14:50:25;4.55;;;1.20;;
73219;SDS011;61434;43.538;-5.688;2023-03-01T14:52:52;6.22;;;0.90;;
73219;SDS011;61434;43.538;-5.688;2023-03-01T14:55:36;3.97;;;1.03;;
73219;SDS011;61434;43.538;-5.688;2023-03-01T14:58:06;9.00;;;2.60;;
73219;SDS011;61434;43.538;-5.688;2023-03-01T15:00:34;5.05;;;2.03;;
73219;SDS011;61434;43.538;-5.688;2023-03-01T15:03:02;5.88;;;1.55;;
73219;SDS011;61434;43.538;-5.688;2023-03-01T15:05:32;5.57;;;1.30;;
73219;SDS011;61434;43.538;-5.688;2023-03-01T15:07:58;4.93;;;1.30;;
73219;SDS011;61434;43.538;-5.688;2023-03-01T15:10:29;9.73;;;1.90;;
73219;SDS011;61434;43.538;-5.688;2023-03-01T15:12:55;9.65;;;1.77;;
73219;SDS011;61434;43.538;-5.688;2023-03-01T15:15:34;11.97;;;2.00;;
73219;SDS011;61434;43.538;-5.688;2023-03-01T15:18:04;6.82;;;2.05;;
73219;SDS011;61434;43.538;-5.688;2023-03-01T15:20:30;6.18;;;1.65;;
73219;SDS011;61434;43.538;-5.688;2023-03-01T15:23:00;5.95;;;1.98;;
73219;SDS011;61434;43.538;-5.688;2023-03-01T15:25:26;7.30;;;2.53;;
73219;SDS011;61434;43.538;-5.688;2023-03-01T15:27:53;6.72;;;2.60;;
73219;SDS011;61434;43.538;-5.688;2023-03-01T15:30:26;8.23;;;2.28;;
73219;SDS011;61434;43.538;-5.688;2023-03-01T15:35:44;8.23;;;2.20;;
73219;SDS011;61434;43.538;-5.688;2023-03-01T15:40:50;6.85;;;1.83;;
73219;SDS011;61434;43.538;-5.688;2023-03-01T15:46:00;6.77;;;1.73;;
73219;SDS011;61434;43.538;-5.688;2023-03-01T15:48:26;7.13;;;1.85;;
73219;SDS011;61434;43.538;-5.688;2023-03-01T15:50:56;6.03;;;2.30;;
73219;SDS011;61434;43.538;-5.688;2023-03-01T15:53:22;10.23;;;2.83;;
73219;SDS011;61434;43.538;-5.688;2023-03-01T15:55:47;6.00;;;2.20;;
73219;SDS011;61434;43.538;-5.688;2023-03-01T15:58:16;8.32;;;3.35;;
73219;SDS011;61434;43.538;-5.688;2023-03-01T16:00:42;6.78;;;2.35;;
73219;SDS011;61434;43.538;-5.688;2023-03-01T16:03:08;7.20;;;2.00;;
73219;SDS011;61434;43.538;-5.688;2023-03-01T16:05:37;5.78;;;2.58;;
73219;SDS011;61434;43.538;-5.688;2023-03-01T16:08:02;6.78;;;2.92;;
73219;SDS011;61434;43.538;-5.688;2023-03-01T16:10:28;9.45;;;3.60;;
73219;SDS011;61434;43.538;-5.688;2023-03-01T16:12:54;7.93;;;3.10;;
73219;SDS011;61434;43.538;-5.688;2023-03-01T16:15:23;6.30;;;2.60;;
73219;SDS011;61434;43.538;-5.688;2023-03-01T16:17:49;6.22;;;2.08;;
73219;SDS011;61434;43.538;-5.688;2023-03-01T16:20:14;5.30;;;1.77;;
73219;SDS011;61434;43.538;-5.688;2023-03-01T16:22:44;6.15;;;1.92;;
73219;SDS011;61434;43.538;-5.688;2023-03-01T16:25:19;5.88;;;2.00;;
73219;SDS011;61434;43.538;-5.688;2023-03-01T16:27:45;5.65;;;1.80;;
73219;SDS011;61434;43.538;-5.688;2023-03-01T16:30:12;4.90;;;2.00;;
73219;SDS011;61434;43.538;-5.688;2023-03-01T16:32:38;4.27;;;1.80;;
73219;SDS011;61434;43.538;-5.688;2023-03-01T16:35:04;4.10;;;1.50;;
73219;SDS011;61434;43.538;-5.688;2023-03-01T16:37:31;6.03;;;1.70;;
73219;SDS011;61434;43.538;-5.688;2023-03-01T16:39:56;7.07;;;1.95;;
73219;SDS011;61434;43.538;-5.688;2023-03-01T16:42:21;5.10;;;1.70;;